createdAt,value
2024-04-04T00:00:41.639Z,0.90
2024-04-04T00:01:41.590Z,1.00
2024-04-04T00:02:41.602Z,1.00
2024-04-04T00:03:41.581Z,0.70
2024-04-04T00:04:41.596Z,1.10
2024-04-04T00:05:41.720Z,0.90
2024-04-04T00:06:41.538Z,0.80
2024-04-04T00:07:41.663Z,0.60
2024-04-04T00:08:41.547Z,0.80
2024-04-04T00:09:41.536Z,0.70
2024-04-04T00:10:41.506Z,0.80
2024-04-04T00:11:41.759Z,0.90
2024-04-04T00:12:41.489Z,0.80
2024-04-04T00:13:41.469Z,0.60
2024-04-04T00:14:41.455Z,0.70
2024-04-04T00:15:41.682Z,0.80
2024-04-04T00:16:41.463Z,0.80
2024-04-04T00:17:41.447Z,1.00
2024-04-04T00:18:41.415Z,0.70
2024-04-04T00:19:41.410Z,0.80
2024-04-04T00:20:41.395Z,0.80
2024-04-04T00:21:41.500Z,0.80
2024-04-04T00:22:41.382Z,0.80
2024-04-04T00:23:41.378Z,1.10
2024-04-04T00:24:41.383Z,0.90
2024-04-04T00:25:41.635Z,1.00
2024-04-04T00:26:41.336Z,0.80
2024-04-04T00:27:41.315Z,0.90
2024-04-04T00:28:41.312Z,0.90
2024-04-04T00:29:41.320Z,0.80
2024-04-04T00:30:41.289Z,0.80
2024-04-04T00:31:41.561Z,1.10
2024-04-04T00:32:41.392Z,0.90
2024-04-04T00:33:41.252Z,0.90
2024-04-04T00:34:41.255Z,0.90
2024-04-04T00:35:41.338Z,1.10
2024-04-04T00:36:41.226Z,0.90
2024-04-04T00:37:41.208Z,0.90
2024-04-04T00:38:41.233Z,0.80
2024-04-04T00:39:41.273Z,1.10
2024-04-04T00:40:41.184Z,1.00
2024-04-04T00:41:41.192Z,1.20
2024-04-04T00:42:41.173Z,0.70
2024-04-04T00:43:41.149Z,0.70
2024-04-04T00:44:41.236Z,0.90
2024-04-04T00:45:41.127Z,0.70
2024-04-04T00:46:41.120Z,1.00
2024-04-04T00:47:41.157Z,0.90
2024-04-04T00:48:41.111Z,0.80
2024-04-04T00:49:41.090Z,1.00
2024-04-04T00:50:41.103Z,0.90
2024-04-04T00:51:41.070Z,0.80
2024-04-04T00:52:41.074Z,0.80
2024-04-04T00:53:41.095Z,0.70
2024-04-04T00:54:41.073Z,1.00
2024-04-04T00:55:41.021Z,0.80
2024-04-04T00:56:41.013Z,0.90
2024-04-04T00:57:41.014Z,0.90
2024-04-04T00:58:40.993Z,1.00
2024-04-04T00:59:41.050Z,0.80
2024-04-04T01:00:41.014Z,0.80
2024-04-04T01:01:40.961Z,0.90
2024-04-04T01:02:40.960Z,0.80
2024-04-04T01:03:40.945Z,0.90
2024-04-04T01:04:41.494Z,0.90
2024-04-04T01:05:40.941Z,0.80
2024-04-04T01:06:40.997Z,0.90
2024-04-04T01:07:40.906Z,0.90
2024-04-04T01:08:40.898Z,1.00
2024-04-04T01:09:40.879Z,0.90
2024-04-04T01:10:40.866Z,0.90
2024-04-04T01:11:41.107Z,0.90
2024-04-04T01:12:40.856Z,1.00
2024-04-04T01:13:41.047Z,0.90
2024-04-04T01:14:40.824Z,0.90
2024-04-04T01:15:40.817Z,1.00
2024-04-04T01:16:40.804Z,0.80
2024-04-04T01:17:40.823Z,1.00
2024-04-04T01:18:40.945Z,0.90
2024-04-04T01:19:40.772Z,0.90
2024-04-04T01:20:40.770Z,0.90
2024-04-04T01:21:40.757Z,0.90
2024-04-04T01:22:40.778Z,0.80
2024-04-04T01:23:40.780Z,0.70
2024-04-04T01:24:40.797Z,1.00
2024-04-04T01:25:40.708Z,0.80
2024-04-04T01:26:40.697Z,1.00
2024-04-04T01:27:41.019Z,0.70
2024-04-04T01:28:40.680Z,0.80
2024-04-04T01:29:40.722Z,0.80
2024-04-04T01:30:40.683Z,0.90
2024-04-04T01:31:40.652Z,0.70
2024-04-04T01:32:40.673Z,0.90
2024-04-04T01:33:40.627Z,0.90
2024-04-04T01:34:40.624Z,1.00
2024-04-04T01:35:40.657Z,1.00
2024-04-04T01:36:40.603Z,0.90
2024-04-04T01:37:40.587Z,0.90
2024-04-04T01:38:40.642Z,1.00
2024-04-04T01:39:40.566Z,0.90
2024-04-04T01:40:40.586Z,1.00
2024-04-04T01:41:40.561Z,0.80
2024-04-04T01:42:40.551Z,0.90
2024-04-04T01:43:40.593Z,0.80
2024-04-04T01:44:40.675Z,0.80
2024-04-04T01:45:40.499Z,1.10
2024-04-04T01:46:40.968Z,0.80
2024-04-04T01:47:40.500Z,0.90
2024-04-04T01:48:40.514Z,0.80
2024-04-04T01:49:40.463Z,0.80
2024-04-04T01:50:40.476Z,0.80
2024-04-04T01:51:40.437Z,0.80
2024-04-04T01:52:40.470Z,0.90
2024-04-04T01:53:40.414Z,0.90
2024-04-04T01:54:40.445Z,0.90
2024-04-04T01:55:40.391Z,1.10
2024-04-04T01:56:40.390Z,0.90
2024-04-04T01:57:40.446Z,0.80
2024-04-04T01:58:40.415Z,0.90
2024-04-04T01:59:40.352Z,1.10
2024-04-04T02:00:40.850Z,0.90
2024-04-04T02:01:40.469Z,0.80
2024-04-04T02:02:40.322Z,0.90
2024-04-04T02:03:40.339Z,0.80
2024-04-04T02:04:40.304Z,1.20
2024-04-04T02:05:40.310Z,1.00
2024-04-04T02:06:40.312Z,0.80
2024-04-04T02:07:40.295Z,1.00
2024-04-04T02:08:40.527Z,0.90
2024-04-04T02:09:40.249Z,0.80
2024-04-04T02:10:40.235Z,0.80
2024-04-04T02:11:40.224Z,1.00
2024-04-04T02:12:40.323Z,0.70
2024-04-04T02:13:40.241Z,1.00
2024-04-04T02:14:40.215Z,0.80
2024-04-04T02:15:40.185Z,0.80
2024-04-04T02:16:40.208Z,1.00
2024-04-04T02:17:40.181Z,0.80
2024-04-04T02:18:40.234Z,0.80
2024-04-04T02:19:40.176Z,0.90
2024-04-04T02:20:40.141Z,0.80
2024-04-04T02:21:40.217Z,0.90
2024-04-04T02:22:40.119Z,0.90
2024-04-04T02:23:40.099Z,0.80
2024-04-04T02:24:40.117Z,0.80
2024-04-04T02:25:40.076Z,0.90
2024-04-04T02:26:40.075Z,0.60
2024-04-04T02:27:40.269Z,0.80
2024-04-04T02:28:40.049Z,0.90
2024-04-04T02:29:40.064Z,1.10
2024-04-04T02:30:40.049Z,1.00
2024-04-04T02:31:40.018Z,0.90
2024-04-04T02:32:40.325Z,0.90
2024-04-04T02:33:39.994Z,0.80
2024-04-04T02:34:39.994Z,0.80
2024-04-04T02:35:40.010Z,1.00
2024-04-04T02:36:39.996Z,0.90
2024-04-04T02:37:40.062Z,0.90
2024-04-04T02:38:39.957Z,1.00
2024-04-04T02:39:39.927Z,0.80
2024-04-04T02:40:39.965Z,0.90
2024-04-04T02:41:39.929Z,0.80
2024-04-04T02:42:39.915Z,1.10
2024-04-04T02:43:39.889Z,1.00
2024-04-04T02:44:39.882Z,0.80
2024-04-04T02:45:39.870Z,0.90
2024-04-04T02:46:40.001Z,1.00
2024-04-04T02:47:39.862Z,0.90
2024-04-04T02:48:39.892Z,1.00
2024-04-04T02:49:39.835Z,0.90
2024-04-04T02:50:39.814Z,0.90
2024-04-04T02:51:39.809Z,0.70
2024-04-04T02:52:39.810Z,0.90
2024-04-04T02:53:40.044Z,0.90
2024-04-04T02:54:39.798Z,1.00
2024-04-04T02:55:39.763Z,0.90
2024-04-04T02:56:39.758Z,0.90
2024-04-04T02:57:39.748Z,1.00
2024-04-04T02:58:39.751Z,0.90
2024-04-04T02:59:39.727Z,1.00
2024-04-04T03:00:39.753Z,0.80
2024-04-04T03:01:39.711Z,1.20
2024-04-04T03:02:39.724Z,0.80
2024-04-04T03:03:39.973Z,1.00
2024-04-04T03:04:39.691Z,1.00
2024-04-04T03:05:39.664Z,1.30
2024-04-04T03:06:39.642Z,1.10
2024-04-04T03:07:39.665Z,1.10
2024-04-04T03:08:39.656Z,0.80
2024-04-04T03:09:39.610Z,1.00
2024-04-04T03:10:39.604Z,1.00
2024-04-04T03:11:39.597Z,0.80
2024-04-04T03:12:39.694Z,0.80
2024-04-04T03:13:39.624Z,1.10
2024-04-04T03:14:39.562Z,1.00
2024-04-04T03:15:39.550Z,1.10
2024-04-04T03:16:39.844Z,0.70
2024-04-04T03:17:39.868Z,1.00
2024-04-04T03:18:39.572Z,0.70
2024-04-04T03:19:39.535Z,1.00
2024-04-04T03:20:39.505Z,1.00
2024-04-04T03:21:39.537Z,1.10
2024-04-04T03:22:39.476Z,1.10
2024-04-04T03:23:39.465Z,1.30
2024-04-04T03:24:39.502Z,1.10
2024-04-04T03:25:39.452Z,1.00
2024-04-04T03:26:39.434Z,1.00
2024-04-04T03:27:39.723Z,0.80
2024-04-04T03:28:39.651Z,1.10
2024-04-04T03:29:39.411Z,0.90
2024-04-04T03:30:39.681Z,1.00
2024-04-04T03:31:39.377Z,1.40
2024-04-04T03:32:39.377Z,1.30
2024-04-04T03:33:39.483Z,1.10
2024-04-04T03:34:39.349Z,1.30
2024-04-04T03:35:39.338Z,0.90
2024-04-04T03:36:39.369Z,1.20
2024-04-04T03:37:39.322Z,1.10
2024-04-04T03:38:39.315Z,0.80
2024-04-04T03:39:39.674Z,1.30
2024-04-04T03:40:39.292Z,1.20
2024-04-04T03:41:39.292Z,1.20
2024-04-04T03:42:39.295Z,1.30
2024-04-04T03:43:39.248Z,1.40
2024-04-04T03:44:39.274Z,1.20
2024-04-04T03:45:39.228Z,1.30
2024-04-04T03:46:39.221Z,1.10
2024-04-04T03:47:39.207Z,1.20
2024-04-04T03:48:39.239Z,1.20
2024-04-04T03:49:39.441Z,1.20
2024-04-04T03:50:39.185Z,1.10
2024-04-04T03:51:39.185Z,0.90
2024-04-04T03:52:39.160Z,1.00
2024-04-04T03:53:39.145Z,0.90
2024-04-04T03:54:39.208Z,1.20
2024-04-04T03:55:39.152Z,1.00
2024-04-04T03:56:44.327Z,1.20
2024-04-04T03:57:40.156Z,1.20
2024-04-04T03:58:39.096Z,1.00
2024-04-04T03:59:39.091Z,1.20
2024-04-04T04:00:39.327Z,1.30
2024-04-04T04:01:39.208Z,1.30
2024-04-04T04:02:39.926Z,1.10
2024-04-04T04:03:39.036Z,1.30
2024-04-04T04:04:39.024Z,1.20
2024-04-04T04:05:39.030Z,1.50
2024-04-04T04:06:39.087Z,1.60
2024-04-04T04:07:39.235Z,1.40
2024-04-04T04:08:39.020Z,1.40
2024-04-04T04:09:39.032Z,1.40
2024-04-04T04:10:39.139Z,1.30
2024-04-04T04:11:38.964Z,1.30
2024-04-04T04:12:38.981Z,1.20
2024-04-04T04:13:38.938Z,1.30
2024-04-04T04:14:38.960Z,1.30
2024-04-04T04:15:38.919Z,1.40
2024-04-04T04:16:38.913Z,1.30
2024-04-04T04:17:38.893Z,1.20
2024-04-04T04:18:39.023Z,1.40
2024-04-04T04:19:38.875Z,1.10
2024-04-04T04:20:38.867Z,1.70
2024-04-04T04:21:38.851Z,1.40
2024-04-04T04:22:39.122Z,1.20
2024-04-04T04:23:38.843Z,1.30
2024-04-04T04:24:38.843Z,1.20
2024-04-04T04:25:39.194Z,1.10
2024-04-04T04:26:38.803Z,1.30
2024-04-04T04:27:38.789Z,1.40
2024-04-04T04:28:38.778Z,1.50
2024-04-04T04:29:38.809Z,1.30
2024-04-04T04:30:38.789Z,1.10
2024-04-04T04:31:38.935Z,1.50
2024-04-04T04:32:38.741Z,1.20
2024-04-04T04:33:38.728Z,1.70
2024-04-04T04:34:38.732Z,1.50
2024-04-04T04:35:38.731Z,1.50
2024-04-04T04:36:38.720Z,1.40
2024-04-04T04:37:38.682Z,1.50
2024-04-04T04:38:38.677Z,1.20
2024-04-04T04:39:38.699Z,1.40
2024-04-04T04:40:38.659Z,1.10
2024-04-04T04:41:38.668Z,1.30
2024-04-04T04:42:38.635Z,1.40
2024-04-04T04:43:38.616Z,1.20
2024-04-04T04:44:38.646Z,1.20
2024-04-04T04:45:38.600Z,1.20
2024-04-04T04:46:38.598Z,1.10
2024-04-04T04:47:38.627Z,1.20
2024-04-04T04:48:38.570Z,1.20
2024-04-04T04:49:38.572Z,1.40
2024-04-04T04:50:38.621Z,1.00
2024-04-04T04:51:38.536Z,1.70
2024-04-04T04:52:38.525Z,1.30
2024-04-04T04:53:38.543Z,1.20
2024-04-04T04:54:38.507Z,1.20
2024-04-04T04:55:38.664Z,1.30
2024-04-04T04:56:38.488Z,1.40
2024-04-04T04:57:38.801Z,1.20
2024-04-04T04:58:38.465Z,1.10
2024-04-04T04:59:38.486Z,1.20
2024-04-04T05:00:38.454Z,1.40
2024-04-04T05:01:38.443Z,1.30
2024-04-04T05:02:38.455Z,1.70
2024-04-04T05:03:38.403Z,1.30
2024-04-04T05:04:38.410Z,1.40
2024-04-04T05:05:38.593Z,1.40
2024-04-04T05:06:38.526Z,0.90
2024-04-04T05:07:38.491Z,1.20
2024-04-04T05:08:38.506Z,1.40
2024-04-04T05:09:38.414Z,1.20
2024-04-04T05:10:38.400Z,1.40
2024-04-04T05:11:38.334Z,1.60
2024-04-04T05:12:38.382Z,1.30
2024-04-04T05:13:38.369Z,1.30
2024-04-04T05:14:38.294Z,1.40
2024-04-04T05:15:38.292Z,1.30
2024-04-04T05:16:38.287Z,1.40
2024-04-04T05:17:38.265Z,1.40
2024-04-04T05:18:38.278Z,1.40
2024-04-04T05:19:38.279Z,1.30
2024-04-04T05:20:38.256Z,1.20
2024-04-04T05:21:38.226Z,1.40
2024-04-04T05:22:38.216Z,1.00
2024-04-04T05:23:38.257Z,1.10
2024-04-04T05:24:38.223Z,1.50
2024-04-04T05:25:38.216Z,1.30
2024-04-04T05:26:38.173Z,1.20
2024-04-04T05:27:38.163Z,1.20
2024-04-04T05:28:38.282Z,1.20
2024-04-04T05:29:38.136Z,1.50
2024-04-04T05:30:38.162Z,1.50
2024-04-04T05:31:38.140Z,1.40
2024-04-04T05:32:38.105Z,1.30
2024-04-04T05:33:38.133Z,1.50
2024-04-04T05:34:38.093Z,1.20
2024-04-04T05:35:38.078Z,1.20
2024-04-04T05:36:38.289Z,1.20
2024-04-04T05:37:38.057Z,1.30
2024-04-04T05:38:38.055Z,1.50
2024-04-04T05:39:38.029Z,1.20
2024-04-04T05:40:38.105Z,1.30
2024-04-04T05:41:38.005Z,1.10
2024-04-04T05:42:38.026Z,1.30
2024-04-04T05:43:37.986Z,1.70
2024-04-04T05:44:38.019Z,1.50
2024-04-04T05:45:37.970Z,1.20
2024-04-04T05:46:37.955Z,1.40
2024-04-04T05:47:37.945Z,1.30
2024-04-04T05:48:37.974Z,1.30
2024-04-04T05:49:37.925Z,1.20
2024-04-04T05:50:37.963Z,1.60
2024-04-04T05:51:37.902Z,1.40
2024-04-04T05:52:37.901Z,1.30
2024-04-04T05:53:38.143Z,1.30
2024-04-04T05:54:37.897Z,1.10
2024-04-04T05:55:37.859Z,1.20
2024-04-04T05:56:37.844Z,1.30
2024-04-04T05:57:37.841Z,1.70
2024-04-04T05:58:37.851Z,1.30
2024-04-04T05:59:37.867Z,1.40
2024-04-04T06:00:37.850Z,1.50
2024-04-04T06:01:37.804Z,1.40
2024-04-04T06:02:37.808Z,1.60
2024-04-04T06:03:37.999Z,1.50
2024-04-04T06:04:46.379Z,1.60
2024-04-04T06:05:38.752Z,1.60
2024-04-04T06:06:37.808Z,1.60
2024-04-04T06:07:37.731Z,1.80
2024-04-04T06:08:37.737Z,1.60
2024-04-04T06:09:37.744Z,1.20
2024-04-04T06:10:37.717Z,1.40
2024-04-04T06:11:37.735Z,1.40
2024-04-04T06:12:37.721Z,1.30
2024-04-04T06:13:37.668Z,1.50
2024-04-04T06:14:37.653Z,1.50
2024-04-04T06:15:37.695Z,1.50
2024-04-04T06:16:37.640Z,1.30
2024-04-04T06:17:37.662Z,1.30
2024-04-04T06:18:37.609Z,1.20
2024-04-04T06:19:37.599Z,1.70
2024-04-04T06:20:37.598Z,1.30
2024-04-04T06:21:37.638Z,1.50
2024-04-04T06:22:37.583Z,1.40
2024-04-04T06:23:37.653Z,1.40
2024-04-04T06:24:37.600Z,1.60
2024-04-04T06:25:37.597Z,1.40
2024-04-04T06:26:37.574Z,1.50
2024-04-04T06:27:37.534Z,2.20
2024-04-04T06:28:37.547Z,2.00
2024-04-04T06:29:37.730Z,1.80
2024-04-04T06:30:37.592Z,2.00
2024-04-04T06:31:37.523Z,1.80
2024-04-04T06:32:37.467Z,2.00
2024-04-04T06:33:37.461Z,1.90
2024-04-04T06:34:37.445Z,1.80
2024-04-04T06:35:37.492Z,1.80
2024-04-04T06:36:37.423Z,2.00
2024-04-04T06:37:37.450Z,1.60
2024-04-04T06:38:37.406Z,1.80
2024-04-04T06:39:37.419Z,1.40
2024-04-04T06:40:37.392Z,1.30
2024-04-04T06:41:37.395Z,1.40
2024-04-04T06:42:37.369Z,1.40
2024-04-04T06:43:37.364Z,1.50
2024-04-04T06:44:37.439Z,1.30
2024-04-04T06:45:37.608Z,1.40
2024-04-04T06:46:37.338Z,1.30
2024-04-04T06:47:37.332Z,1.10
2024-04-04T06:48:37.306Z,1.60
2024-04-04T06:49:37.347Z,1.40
2024-04-04T06:50:37.285Z,1.20
2024-04-04T06:51:37.275Z,1.40
2024-04-04T06:52:37.283Z,1.40
2024-04-04T06:53:37.271Z,1.60
2024-04-04T06:54:37.275Z,1.40
2024-04-04T06:55:37.515Z,1.50
2024-04-04T06:56:37.242Z,1.50
2024-04-04T06:57:37.417Z,1.50
2024-04-04T06:58:37.189Z,1.30
2024-04-04T06:59:37.205Z,1.40
2024-04-04T07:00:37.198Z,1.60
2024-04-04T07:01:38.104Z,1.30
2024-04-04T07:02:37.142Z,1.40
2024-04-04T07:03:37.226Z,1.20
2024-04-04T07:04:37.480Z,1.30
2024-04-04T07:05:37.121Z,1.40
2024-04-04T07:06:37.116Z,1.60
2024-04-04T07:07:37.127Z,1.50
2024-04-04T07:08:37.085Z,1.20
2024-04-04T07:09:37.096Z,1.30
2024-04-04T07:10:37.062Z,1.20
2024-04-04T07:11:37.389Z,1.30
2024-04-04T07:12:37.071Z,1.30
2024-04-04T07:13:37.058Z,1.10
2024-04-04T07:14:37.021Z,1.50
2024-04-04T07:15:37.091Z,1.10
2024-04-04T07:16:37.032Z,1.70
2024-04-04T07:17:37.051Z,1.60
2024-04-04T07:18:36.999Z,1.60
2024-04-04T07:19:36.965Z,1.30
2024-04-04T07:20:36.958Z,1.30
2024-04-04T07:21:37.194Z,1.20
2024-04-04T07:22:36.941Z,1.50
2024-04-04T07:23:36.948Z,1.40
2024-04-04T07:24:36.922Z,1.50
2024-04-04T07:25:36.922Z,1.50
2024-04-04T07:26:37.063Z,1.30
2024-04-04T07:27:36.926Z,1.50
2024-04-04T07:28:36.896Z,1.60
2024-04-04T07:29:37.095Z,1.60
2024-04-04T07:30:36.858Z,1.70
2024-04-04T07:31:36.847Z,1.70
2024-04-04T07:32:36.894Z,1.80
2024-04-04T07:33:36.923Z,1.60
2024-04-04T07:34:36.819Z,1.60
2024-04-04T07:35:36.809Z,1.60
2024-04-04T07:36:36.809Z,1.60
2024-04-04T07:37:36.807Z,1.60
2024-04-04T07:38:36.790Z,1.80
2024-04-04T07:39:36.792Z,1.90
2024-04-04T07:40:36.755Z,1.70
2024-04-04T07:41:36.748Z,1.50
2024-04-04T07:42:36.787Z,1.70
2024-04-04T07:43:36.759Z,1.50
2024-04-04T07:44:36.758Z,1.80
2024-04-04T07:45:36.776Z,1.50
2024-04-04T07:46:37.596Z,1.60
2024-04-04T07:47:36.689Z,1.50
2024-04-04T07:48:36.680Z,1.40
2024-04-04T07:49:36.669Z,1.70
2024-04-04T07:50:36.686Z,1.60
2024-04-04T07:51:36.801Z,1.40
2024-04-04T07:52:36.625Z,1.40
2024-04-04T07:53:36.630Z,1.50
2024-04-04T07:54:36.619Z,1.50
2024-04-04T07:55:36.593Z,1.40
2024-04-04T07:56:36.631Z,1.70
2024-04-04T07:57:36.591Z,1.90
2024-04-04T07:58:36.617Z,1.50
2024-04-04T07:59:36.579Z,1.80
2024-04-04T08:00:36.558Z,1.60
2024-04-04T08:01:36.530Z,1.60
2024-04-04T08:02:36.527Z,1.60
2024-04-04T08:03:36.550Z,1.60
2024-04-04T08:04:36.517Z,1.80
2024-04-04T08:05:36.490Z,1.50
2024-04-04T08:06:36.483Z,1.40
2024-04-04T08:07:36.555Z,1.50
2024-04-04T08:08:36.458Z,1.60
2024-04-04T08:09:36.451Z,1.30
2024-04-04T08:10:36.462Z,1.50
2024-04-04T08:11:36.425Z,1.50
2024-04-04T08:12:36.415Z,1.80
2024-04-04T08:13:36.446Z,1.60
2024-04-04T08:14:36.395Z,1.30
2024-04-04T08:15:36.412Z,1.60
2024-04-04T08:16:36.386Z,1.60
2024-04-04T08:17:36.375Z,1.70
2024-04-04T08:18:36.384Z,1.60
2024-04-04T08:19:36.341Z,1.50
2024-04-04T08:20:36.357Z,1.50
2024-04-04T08:21:36.421Z,1.50
2024-04-04T08:22:36.309Z,1.40
2024-04-04T08:23:36.308Z,1.20
2024-04-04T08:24:36.327Z,1.60
2024-04-04T08:25:36.288Z,1.60
2024-04-04T08:26:36.270Z,2.00
2024-04-04T08:27:36.257Z,1.50
2024-04-04T08:28:36.246Z,1.90
2024-04-04T08:29:36.247Z,1.60
2024-04-04T08:30:36.340Z,1.60
2024-04-04T08:31:36.236Z,1.60
2024-04-04T08:32:36.247Z,1.90
2024-04-04T08:33:36.200Z,1.80
2024-04-04T08:34:36.184Z,1.50
2024-04-04T08:35:36.488Z,1.50
2024-04-04T08:36:36.230Z,1.80
2024-04-04T08:37:36.201Z,1.70
2024-04-04T08:38:36.140Z,1.50
2024-04-04T08:39:36.205Z,1.50
2024-04-04T08:40:36.115Z,1.60
2024-04-04T08:41:36.136Z,1.40
2024-04-04T08:42:36.152Z,1.40
2024-04-04T08:43:36.128Z,1.60
2024-04-04T08:44:36.170Z,1.40
2024-04-04T08:45:36.061Z,1.30
2024-04-04T08:46:36.082Z,1.30
2024-04-04T08:47:36.150Z,1.50
2024-04-04T08:48:36.041Z,1.50
2024-04-04T08:49:36.109Z,1.50
2024-04-04T08:50:44.151Z,1.70
2024-04-04T08:51:36.995Z,1.80
2024-04-04T08:52:36.157Z,1.60
2024-04-04T08:53:35.992Z,1.50
2024-04-04T08:54:35.972Z,1.30
2024-04-04T08:55:36.151Z,1.50
2024-04-04T08:56:36.060Z,1.50
2024-04-04T08:57:36.012Z,1.40
2024-04-04T08:58:35.957Z,1.50
2024-04-04T08:59:35.913Z,1.20
2024-04-04T09:00:36.000Z,1.40
2024-04-04T09:01:36.013Z,1.40
2024-04-04T09:02:35.877Z,1.20
2024-04-04T09:03:35.918Z,1.50
2024-04-04T09:04:35.888Z,1.30
2024-04-04T09:05:35.883Z,1.50
2024-04-04T09:06:35.846Z,1.70
2024-04-04T09:07:35.851Z,1.40
2024-04-04T09:08:35.815Z,1.30
2024-04-04T09:09:36.103Z,1.50
2024-04-04T09:10:35.801Z,1.30
2024-04-04T09:11:35.799Z,1.70
2024-04-04T09:12:35.774Z,1.50
2024-04-04T09:13:35.797Z,1.40
2024-04-04T09:14:35.776Z,1.80
2024-04-04T09:15:35.810Z,1.50
2024-04-04T09:16:36.049Z,1.90
2024-04-04T09:17:35.722Z,1.50
2024-04-04T09:18:35.708Z,1.40
2024-04-04T09:19:37.210Z,1.40
2024-04-04T09:20:35.704Z,1.60
2024-04-04T09:21:35.951Z,1.30
2024-04-04T09:22:35.666Z,1.40
2024-04-04T09:23:35.659Z,1.30
2024-04-04T09:24:41.921Z,1.60
2024-04-04T09:25:36.646Z,1.40
2024-04-04T09:26:35.657Z,1.50
2024-04-04T09:27:35.731Z,1.40
2024-04-04T09:28:35.601Z,1.30
2024-04-04T09:29:35.590Z,1.30
2024-04-04T09:30:35.718Z,1.30
2024-04-04T09:31:35.573Z,1.40
2024-04-04T09:32:35.572Z,1.30
2024-04-04T09:33:35.832Z,1.40
2024-04-04T09:34:35.540Z,1.40
2024-04-04T09:35:35.536Z,1.30
2024-04-04T09:36:35.528Z,1.30
2024-04-04T09:37:35.511Z,1.30
2024-04-04T09:38:35.547Z,1.50
2024-04-04T09:39:35.494Z,1.30
2024-04-04T09:40:35.759Z,1.40
2024-04-04T09:41:35.465Z,1.40
2024-04-04T09:42:35.480Z,1.30
2024-04-04T09:43:35.444Z,1.10
2024-04-04T09:44:35.460Z,1.30
2024-04-04T09:45:35.699Z,1.10
2024-04-04T09:46:35.407Z,1.20
2024-04-04T09:47:35.406Z,1.20
2024-04-04T09:48:37.211Z,1.10
2024-04-04T09:49:37.283Z,1.40
2024-04-04T09:50:35.402Z,1.80
2024-04-04T09:51:35.365Z,1.50
2024-04-04T09:52:35.368Z,1.30
2024-04-04T09:53:35.661Z,1.50
2024-04-04T09:54:35.335Z,1.20
2024-04-04T09:55:35.313Z,1.20
2024-04-04T09:56:35.376Z,1.40
2024-04-04T09:57:35.299Z,1.40
2024-04-04T09:58:35.320Z,1.40
2024-04-04T09:59:35.282Z,1.20
2024-04-04T10:00:35.320Z,1.50
2024-04-04T10:01:35.286Z,1.30
2024-04-04T10:02:35.242Z,1.30
2024-04-04T10:03:35.286Z,1.20
2024-04-04T10:04:35.644Z,1.40
2024-04-04T10:05:35.219Z,1.40
2024-04-04T10:06:35.761Z,1.40
2024-04-04T10:07:35.317Z,1.50
2024-04-04T10:08:35.184Z,1.30
2024-04-04T10:09:35.192Z,1.30
2024-04-04T10:10:35.179Z,1.20
2024-04-04T10:11:35.150Z,1.30
2024-04-04T10:12:35.155Z,1.20
2024-04-04T10:13:35.286Z,1.30
2024-04-04T10:14:35.113Z,1.40
2024-04-04T10:15:35.146Z,1.40
2024-04-04T10:16:35.093Z,1.40
2024-04-04T10:17:35.101Z,1.30
2024-04-04T10:18:35.153Z,1.30
2024-04-04T10:19:35.084Z,1.20
2024-04-04T10:20:35.062Z,1.20
2024-04-04T10:21:35.051Z,1.20
2024-04-04T10:22:35.058Z,1.30
2024-04-04T10:23:35.085Z,1.10
2024-04-04T10:24:35.016Z,1.30
2024-04-04T10:25:35.307Z,1.20
2024-04-04T10:26:35.052Z,1.30
2024-04-04T10:27:34.985Z,1.30
2024-04-04T10:28:34.988Z,1.40
2024-04-04T10:29:39.941Z,1.30
2024-04-04T10:30:35.950Z,1.00
2024-04-04T10:31:35.411Z,1.30
2024-04-04T10:32:34.978Z,1.40
2024-04-04T10:33:34.928Z,1.20
2024-04-04T10:34:34.917Z,1.20
2024-04-04T10:35:34.898Z,1.10
2024-04-04T10:36:34.937Z,1.00
2024-04-04T10:37:34.888Z,1.00
2024-04-04T10:38:34.863Z,1.10
2024-04-04T10:39:34.923Z,1.00
2024-04-04T10:40:34.872Z,1.30
2024-04-04T10:41:35.149Z,1.20
2024-04-04T10:42:34.844Z,1.10
2024-04-04T10:43:34.818Z,1.00
2024-04-04T10:44:34.802Z,1.10
2024-04-04T10:45:34.884Z,1.00
2024-04-04T10:46:35.063Z,0.80
2024-04-04T10:47:34.845Z,1.00
2024-04-04T10:48:34.801Z,1.10
2024-04-04T10:49:34.831Z,1.00
2024-04-04T10:50:34.801Z,1.10
2024-04-04T10:51:34.728Z,1.00
2024-04-04T10:52:34.729Z,1.10
2024-04-04T10:53:34.706Z,1.10
2024-04-04T10:54:34.714Z,1.20
2024-04-04T10:55:34.701Z,0.90
2024-04-04T10:56:34.948Z,1.10
2024-04-04T10:57:34.687Z,1.00
2024-04-04T10:58:34.839Z,1.10
2024-04-04T10:59:34.718Z,1.00
2024-04-04T11:00:34.654Z,1.10
2024-04-04T11:01:34.635Z,1.10
2024-04-04T11:02:34.748Z,0.90
2024-04-04T11:03:34.731Z,1.10
2024-04-04T11:04:34.919Z,1.20
2024-04-04T11:05:34.610Z,1.20
2024-04-04T11:06:34.772Z,1.00
2024-04-04T11:07:34.582Z,1.20
2024-04-04T11:08:34.593Z,1.00
2024-04-04T11:09:34.539Z,1.10
2024-04-04T11:10:34.552Z,0.90
2024-04-04T11:11:34.521Z,1.00
2024-04-04T11:12:34.516Z,0.90
2024-04-04T11:13:34.527Z,1.10
2024-04-04T11:14:34.485Z,1.20
2024-04-04T11:15:34.541Z,1.20
2024-04-04T11:16:34.467Z,1.20
2024-04-04T11:17:34.487Z,1.10
2024-04-04T11:18:34.441Z,1.10
2024-04-04T11:19:34.469Z,1.10
2024-04-04T11:20:34.432Z,1.20
2024-04-04T11:21:34.486Z,1.20
2024-04-04T11:22:34.440Z,1.00
2024-04-04T11:23:34.404Z,1.00
2024-04-04T11:24:34.412Z,1.00
2024-04-04T11:25:34.371Z,0.90
2024-04-04T11:26:34.376Z,1.20
2024-04-04T11:27:34.382Z,1.10
2024-04-04T11:28:42.723Z,1.10
2024-04-04T11:29:35.337Z,1.10
2024-04-04T11:30:34.327Z,1.10
2024-04-04T11:31:34.308Z,1.30
2024-04-04T11:32:34.345Z,0.80
2024-04-04T11:33:34.407Z,1.10
2024-04-04T11:34:34.277Z,1.00
2024-04-04T11:35:34.265Z,0.90
2024-04-04T11:36:34.253Z,1.00
2024-04-04T11:37:34.247Z,1.10
2024-04-04T11:38:34.503Z,1.00
2024-04-04T11:39:34.280Z,1.10
2024-04-04T11:40:34.343Z,1.00
2024-04-04T11:41:34.220Z,1.10
2024-04-04T11:42:34.223Z,1.10
2024-04-04T11:43:34.206Z,1.30
2024-04-04T11:44:34.203Z,1.10
2024-04-04T11:45:34.193Z,1.10
2024-04-04T11:46:34.167Z,1.10
2024-04-04T11:47:34.363Z,1.00
2024-04-04T11:48:34.134Z,1.00
2024-04-04T11:49:34.120Z,1.00
2024-04-04T11:50:34.137Z,0.80
2024-04-04T11:51:34.127Z,1.00
2024-04-04T11:52:34.105Z,0.90
2024-04-04T11:53:34.315Z,0.80
2024-04-04T11:54:34.091Z,1.00
2024-04-04T11:55:34.054Z,0.80
2024-04-04T11:56:34.076Z,0.90
2024-04-04T11:57:34.042Z,0.80
2024-04-04T11:58:34.041Z,0.90
2024-04-04T11:59:34.056Z,0.90
2024-04-04T12:00:34.051Z,0.90
2024-04-04T12:01:33.991Z,0.90
2024-04-04T12:02:34.028Z,1.10
2024-04-04T12:03:33.995Z,0.80
2024-04-04T12:04:33.963Z,0.80
2024-04-04T12:05:33.956Z,0.80
2024-04-04T12:06:33.954Z,0.90
2024-04-04T12:07:33.940Z,0.70
2024-04-04T12:08:34.171Z,0.90
2024-04-04T12:09:33.943Z,0.90
2024-04-04T12:10:33.917Z,0.70
2024-04-04T12:11:33.897Z,0.80
2024-04-04T12:12:33.921Z,0.70
2024-04-04T12:13:33.886Z,0.70
2024-04-04T12:14:33.890Z,0.70
2024-04-04T12:15:33.852Z,0.60
2024-04-04T12:16:33.848Z,0.70
2024-04-04T12:17:33.867Z,0.60
2024-04-04T12:18:33.832Z,0.70
2024-04-04T12:19:33.818Z,0.70
2024-04-04T12:20:33.832Z,0.80
2024-04-04T12:21:33.784Z,0.80
2024-04-04T12:22:33.803Z,0.70
2024-04-04T12:23:34.499Z,0.60
2024-04-04T12:24:33.797Z,0.70
2024-04-04T12:25:33.746Z,0.60
2024-04-04T12:26:33.747Z,0.60
2024-04-04T12:27:33.754Z,0.50
2024-04-04T12:28:33.717Z,0.50
2024-04-04T12:29:33.712Z,0.50
2024-04-04T12:30:33.734Z,0.30
2024-04-04T12:31:33.723Z,0.60
2024-04-04T12:32:33.705Z,0.50
2024-04-04T12:33:33.687Z,0.40
2024-04-04T12:34:33.653Z,0.50
2024-04-04T12:35:33.635Z,0.60
2024-04-04T12:36:33.622Z,0.60
2024-04-04T12:37:33.666Z,0.40
2024-04-04T12:38:33.614Z,0.60
2024-04-04T12:39:33.656Z,0.50
2024-04-04T12:40:33.594Z,0.50
2024-04-04T12:41:33.577Z,0.50
2024-04-04T12:42:33.562Z,0.60
2024-04-04T12:43:33.551Z,0.70
2024-04-04T12:44:33.599Z,0.60
2024-04-04T12:45:33.572Z,0.80
2024-04-04T12:46:33.531Z,0.60
2024-04-04T12:47:33.537Z,0.60
2024-04-04T12:48:33.522Z,0.60
2024-04-04T12:49:33.600Z,0.60
2024-04-04T12:50:33.494Z,0.70
2024-04-04T12:51:33.496Z,0.60
2024-04-04T12:52:33.470Z,0.50
2024-04-04T12:53:33.480Z,0.60
2024-04-04T12:54:33.573Z,0.50
2024-04-04T12:55:33.429Z,0.60
2024-04-04T12:56:33.437Z,0.60
2024-04-04T12:57:33.412Z,0.60
2024-04-04T12:58:33.397Z,0.90
2024-04-04T12:59:33.464Z,0.80
2024-04-04T13:00:33.381Z,0.80
2024-04-04T13:01:33.366Z,0.70
2024-04-04T13:02:33.438Z,1.00
2024-04-04T13:03:33.375Z,0.90
2024-04-04T13:04:33.350Z,0.60
2024-04-04T13:05:33.326Z,0.70
2024-04-04T13:06:33.355Z,0.70
2024-04-04T13:07:33.313Z,0.70
2024-04-04T13:08:33.308Z,0.80
2024-04-04T13:09:33.288Z,0.60
2024-04-04T13:10:33.276Z,0.70
2024-04-04T13:11:33.296Z,0.80
2024-04-04T13:12:33.326Z,0.70
2024-04-04T13:13:33.252Z,0.60
2024-04-04T13:14:33.239Z,0.80
2024-04-04T13:15:33.242Z,0.80
2024-04-04T13:16:33.201Z,0.80
2024-04-04T13:17:33.192Z,0.70
2024-04-04T13:18:33.406Z,0.80